Time;durP1;ratioP1;P1;durP2;ratioP2;P2;SDS_P1;SDS_P2;PMS_P1;PMS_P2;Temp;Humidity;BMP_temperature;BMP_pressure;BME280_temperature;BME280_humidity;BME280_pressure;Samples;Min_cycle;Max_cycle;Signal;HPM_P1;HPM_P2
2022/09/02 00:00:40;;;;;;;;;;;;;;;16.40;91.83;101919.00;5111528;28;20291;-35
2022/09/02 00:03:08;;;;;;;;;;;;;;;16.38;91.91;101921.34;5110968;28;19924;-34
2022/09/02 00:05:38;;;;;;;;;;;;;;;16.36;92.05;101912.34;5110500;28;20304;-31
2022/09/02 00:08:07;;;;;;;;;;;;;;;16.33;92.01;101912.97;5111288;28;20292;-37
2022/09/02 00:10:38;;;;;;;;;;;;;;;16.31;92.28;101913.28;5112364;28;19924;-30
2022/09/02 00:13:07;;;;;;;;;;;;;;;16.29;92.35;101909.09;5114410;28;19930;-31
2022/09/02 00:15:34;;;;;;;;;;;;;;;16.27;92.53;101908.59;5114914;28;20299;-30
2022/09/02 00:18:03;;;;;;;;;;;;;;;16.25;92.22;101908.91;5114720;28;19923;-29
2022/09/02 00:20:32;;;;;;;;;;;;;;;16.23;92.18;101899.09;5114365;28;19923;-37
2022/09/02 00:23:01;;;;;;;;;;;;;;;16.20;92.45;101895.75;5114944;28;19928;-31
2022/09/02 00:25:29;;;;;;;;;;;;;;;16.18;92.35;101906.50;5114784;28;20029;-33
2022/09/02 00:27:56;;;;;;;;;;;;;;;16.15;92.33;101901.50;5113929;28;20301;-30
2022/09/02 00:30:24;;;;;;;;;;;;;;;16.13;92.56;101892.53;5114564;28;19957;-36
2022/09/02 00:32:51;;;;;;;;;;;;;;;16.12;92.37;101895.66;5114087;28;19924;-30
2022/09/02 00:35:19;;;;;;;;;;;;;;;16.09;92.46;101893.44;5096228;28;19927;-33
2022/09/02 00:37:47;;;;;;;;;;;;;;;16.06;92.30;101894.91;5096312;28;19928;-30
2022/09/02 00:40:16;;;;;;;;;;;;;;;16.04;92.23;101896.34;5113913;28;19934;-30
2022/09/02 00:42:44;;;;;;;;;;;;;;;16.01;92.33;101889.34;5114360;28;19936;-36
2022/09/02 00:45:12;;;;;;;;;;;;;;;15.99;92.35;101888.84;5095919;28;19928;-30
2022/09/02 00:47:39;;;;;;;;;;;;;;;15.97;92.34;101890.31;5113824;28;19938;-40
2022/09/02 00:50:09;;;;;;;;;;;;;;;15.94;92.53;101890.94;5114173;28;19923;-30
2022/09/02 00:52:40;;;;;;;;;;;;;;;15.91;92.32;101881.13;5114458;28;20034;-31
2022/09/02 00:55:10;;;;;;;;;;;;;;;15.89;92.29;101894.66;5113429;28;19924;-30
2022/09/02 00:57:41;;;;;;;;;;;;;;;15.87;92.52;101887.69;5102836;28;19924;-30
2022/09/02 01:00:11;;;;;;;;;;;;;;;15.84;92.54;101889.13;5111139;28;20270;-30
2022/09/02 01:02:40;;;;;;;;;;;;;;;15.81;92.59;101887.75;5095151;28;19924;-30
2022/09/02 01:05:10;;;;;;;;;;;;;;;15.80;92.56;101888.06;5095724;28;19934;-30
2022/09/02 01:07:38;;;;;;;;;;;;;;;15.77;92.54;101880.28;5095645;28;19928;-32
2022/09/02 01:10:08;;;;;;;;;;;;;;;15.75;92.70;101879.75;5112896;28;19928;-36
2022/09/02 01:12:36;;;;;;;;;;;;;;;15.71;92.73;101873.91;5113409;28;19924;-31
2022/09/02 01:15:07;;;;;;;;;;;;;;;15.68;92.71;101877.31;5113157;28;20018;-30
2022/09/02 01:17:37;;;;;;;;;;;;;;;15.67;92.80;101874.81;5113967;28;20042;-33
2022/09/02 01:20:10;;;;;;;;;;;;;;;15.63;92.86;101874.59;5113671;28;19924;-30
2022/09/02 01:22:40;;;;;;;;;;;;;;;15.60;92.88;101863.13;5110365;28;19924;-32
2022/09/02 01:25:09;;;;;;;;;;;;;;;15.56;92.96;101860.09;5113802;28;19974;-32
2022/09/02 01:27:37;;;;;;;;;;;;;;;15.52;93.33;101862.66;5095473;28;20015;-30
2022/09/02 01:30:05;;;;;;;;;;;;;;;15.51;93.34;101862.97;5112906;28;20001;-35
2022/09/02 01:32:33;;;;;;;;;;;;;;;15.48;93.43;101855.97;5113455;28;19928;-31
2022/09/02 01:35:00;;;;;;;;;;;;;;;15.46;93.68;101855.44;5091474;28;19924;-32
2022/09/02 01:37:28;;;;;;;;;;;;;;;15.44;93.64;101840.84;5092229;28;19924;-35
2022/09/02 01:39:57;;;;;;;;;;;;;;;15.42;93.62;101848.75;5091800;28;19928;-32
2022/09/02 01:42:25;;;;;;;;;;;;;;;15.39;93.66;101846.56;5091656;28;19924;-31
2022/09/02 01:44:53;;;;;;;;;;;;;;;15.37;93.93;101848.88;5092168;28;19931;-30
2022/09/02 01:47:22;;;;;;;;;;;;;;;15.33;93.98;101845.00;5091548;28;20031;-28
2022/09/02 01:49:51;;;;;;;;;;;;;;;15.31;94.24;101838.00;5091315;28;19928;-30
2022/09/02 01:52:20;;;;;;;;;;;;;;;15.28;94.14;101833.00;5079782;28;19924;-31
2022/09/02 01:54:48;;;;;;;;;;;;;;;15.26;94.39;101832.47;5092729;28;19924;-33
2022/09/02 01:57:17;;;;;;;;;;;;;;;15.24;94.35;101827.13;5092080;28;20431;-34
2022/09/02 01:59:45;;;;;;;;;;;;;;;15.22;94.39;101831.41;5092629;28;19928;-30
2022/09/02 02:02:15;;;;;;;;;;;;;;;15.20;94.70;101828.06;5091236;28;20043;-34
2022/09/02 02:04:43;;;;;;;;;;;;;;;15.18;94.78;101833.19;5091978;28;19951;-30
2022/09/02 02:07:13;;;;;;;;;;;;;;;15.16;94.87;101833.47;5090010;28;20027;-30
2022/09/02 02:09:41;;;;;;;;;;;;;;;15.13;95.04;101831.28;5091380;28;19955;-31
2022/09/02 02:12:12;;;;;;;;;;;;;;;15.11;95.33;101833.56;5091479;28;20077;-34
2022/09/02 02:14:41;;;;;;;;;;;;;;;15.09;95.40;101824.59;5090938;28;19963;-34
2022/09/02 02:17:09;;;;;;;;;;;;;;;15.07;95.60;101827.72;5090994;28;20022;-30
2022/09/02 02:19:39;;;;;;;;;;;;;;;15.06;95.72;101825.19;5090379;28;20071;-30
2022/09/02 02:22:07;;;;;;;;;;;;;;;15.04;95.57;101831.13;5092318;28;19928;-35
2022/09/02 02:24:34;;;;;;;;;;;;;;;15.03;95.41;101826.66;5090711;28;19924;-33
2022/09/02 02:27:02;;;;;;;;;;;;;;;15.00;95.51;101823.59;5091363;28;19928;-31
2022/09/02 02:29:30;;;;;;;;;;;;;;;14.98;95.61;101823.94;5091972;28;19932;-30
2022/09/02 02:32:00;;;;;;;;;;;;;;;14.95;95.48;101824.53;5090659;28;19934;-34
2022/09/02 02:34:27;;;;;;;;;;;;;;;14.93;95.51;101820.38;5095639;28;19924;-35
2022/09/02 02:36:56;;;;;;;;;;;;;;;14.90;95.47;101819.00;5093538;28;20006;-36
2022/09/02 02:39:24;;;;;;;;;;;;;;;14.86;95.68;101808.66;5091464;28;19924;-31
2022/09/02 02:41:51;;;;;;;;;;;;;;;14.83;95.68;101816.56;5091785;28;19935;-29
2022/09/02 02:44:19;;;;;;;;;;;;;;;14.81;95.85;101823.63;5092056;28;19959;-30
2022/09/02 02:46:47;;;;;;;;;;;;;;;14.78;95.89;101813.84;5091930;28;19924;-30
2022/09/02 02:49:17;;;;;;;;;;;;;;;14.76;96.24;101810.50;5110883;28;19931;-34
2022/09/02 02:51:44;;;;;;;;;;;;;;;14.75;96.27;101827.66;5092557;28;19928;-30
2022/09/02 02:54:13;;;;;;;;;;;;;;;14.71;96.45;101819.00;5092323;28;19924;-32
2022/09/02 02:56:41;;;;;;;;;;;;;;;14.70;96.57;101816.50;5093907;28;19984;-36
2022/09/02 02:59:09;;;;;;;;;;;;;;;14.67;96.34;101815.13;5111992;28;19923;-35
2022/09/02 03:01:37;;;;;;;;;;;;;;;14.65;96.32;101808.97;5111314;28;20014;-31
2022/09/02 03:04:04;;;;;;;;;;;;;;;14.62;96.29;101815.19;5109850;28;19930;-34
2022/09/02 03:06:34;;;;;;;;;;;;;;;14.59;96.45;101807.38;5093795;28;19946;-31
2022/09/02 03:09:03;;;;;;;;;;;;;;;14.56;96.40;101815.59;5092488;28;20364;-30
2022/09/02 03:11:31;;;;;;;;;;;;;;;14.51;96.35;101808.06;5092595;28;19924;-30
2022/09/02 03:13:59;;;;;;;;;;;;;;;14.49;96.73;101804.72;5093661;28;20295;-30
2022/09/02 03:16:27;;;;;;;;;;;;;;;14.48;96.96;101803.03;5092781;28;20380;-36
2022/09/02 03:18:54;;;;;;;;;;;;;;;14.46;96.94;101794.09;5093522;28;19924;-30
2022/09/02 03:21:22;;;;;;;;;;;;;;;14.43;96.97;101805.91;5093259;28;20395;-36
2022/09/02 03:23:51;;;;;;;;;;;;;;;14.39;97.07;101793.59;5092939;28;20372;-30
2022/09/02 03:26:21;;;;;;;;;;;;;;;14.37;97.02;101793.06;5093536;28;19924;-30
2022/09/02 03:28:48;;;;;;;;;;;;;;;14.35;97.54;101795.34;5092890;28;20359;-30
2022/09/02 03:31:18;;;;;;;;;;;;;;;14.33;97.83;101798.44;5093248;28;19924;-30
2022/09/02 03:33:46;;;;;;;;;;;;;;;14.30;98.03;101795.41;5111540;28;19928;-34
2022/09/02 03:36:21;;;;;;;;;;;;;;;14.28;97.89;101792.06;5092849;28;19924;-30
2022/09/02 03:38:51;;;;;;;;;;;;;;;14.25;98.03;101793.50;5093545;28;20018;-30
2022/09/02 03:41:19;;;;;;;;;;;;;;;14.22;98.32;101790.44;5093358;28;19971;-33
2022/09/02 03:43:47;;;;;;;;;;;;;;;14.19;98.34;101782.66;5092557;28;19924;-36
2022/09/02 03:46:15;;;;;;;;;;;;;;;14.17;98.77;101779.31;5095390;28;20439;-32
2022/09/02 03:48:43;;;;;;;;;;;;;;;14.16;99.05;101784.09;5097384;28;19978;-37
2022/09/02 03:51:12;;;;;;;;;;;;;;;14.14;99.22;101778.78;5096442;28;20020;-30
2022/09/02 03:53:41;;;;;;;;;;;;;;;14.14;99.54;101772.31;5115563;28;19939;-30
2022/09/02 03:56:11;;;;;;;;;;;;;;;14.12;99.65;101772.63;5115275;28;20419;-30
2022/09/02 03:58:40;;;;;;;;;;;;;;;14.11;100.00;101773.75;5085119;28;19928;-30
2022/09/02 04:01:08;;;;;;;;;;;;;;;14.11;100.00;101768.16;5092966;28;20419;-34
2022/09/02 04:03:36;;;;;;;;;;;;;;;14.09;100.00;101763.97;5115659;28;20395;-33
2022/09/02 04:06:04;;;;;;;;;;;;;;;14.08;100.00;101759.47;5114144;28;19947;-35
2022/09/02 04:08:32;;;;;;;;;;;;;;;14.06;100.00;101761.75;5096757;28;19924;-30
2022/09/02 04:11:04;;;;;;;;;;;;;;;14.04;100.00;101753.63;5096094;28;20015;-32
2022/09/02 04:13:34;;;;;;;;;;;;;;;14.04;100.00;101758.41;5096672;28;19932;-38
2022/09/02 04:16:05;;;;;;;;;;;;;;;14.02;100.00;101758.72;5095224;28;19923;-31
2022/09/02 04:18:37;;;;;;;;;;;;;;;14.03;100.00;101759.53;5114329;28;19977;-30
2022/09/02 04:21:05;;;;;;;;;;;;;;;14.01;100.00;101759.84;5096675;28;19924;-38
2022/09/02 04:23:35;;;;;;;;;;;;;;;14.00;100.00;101754.53;5096542;28;19931;-30
2022/09/02 04:26:04;;;;;;;;;;;;;;;13.99;100.00;101756.50;5113912;28;19924;-36
2022/09/02 04:28:34;;;;;;;;;;;;;;;13.97;100.00;101757.97;5096787;28;19934;-32
2022/09/02 04:31:04;;;;;;;;;;;;;;;13.95;100.00;101752.66;5096382;28;20412;-32
2022/09/02 04:33:31;;;;;;;;;;;;;;;13.93;100.00;101752.09;5095476;28;19955;-32
2022/09/02 04:35:59;;;;;;;;;;;;;;;13.92;100.00;101746.78;5114148;28;20349;-33
2022/09/02 04:38:31;;;;;;;;;;;;;;;13.91;100.00;101748.75;5114074;28;20026;-31
2022/09/02 04:41:00;;;;;;;;;;;;;;;13.89;100.00;101751.03;5095158;28;20393;-40
2022/09/02 04:43:28;;;;;;;;;;;;;;;13.88;100.00;101746.56;5095780;28;19934;-35
2022/09/02 04:45:57;;;;;;;;;;;;;;;13.88;100.00;101754.13;5095391;28;19924;-38
2022/09/02 04:48:25;;;;;;;;;;;;;;;13.86;100.00;101751.63;5095984;28;19993;-36
2022/09/02 04:50:53;;;;;;;;;;;;;;;13.85;100.00;101744.34;5096012;28;19944;-38
2022/09/02 04:53:21;;;;;;;;;;;;;;;13.85;100.00;101743.50;5095021;28;19934;-39
2022/09/02 04:55:51;;;;;;;;;;;;;;;13.85;100.00;101749.13;5095911;28;19934;-34
2022/09/02 04:58:26;;;;;;;;;;;;;;;13.83;100.00;101746.59;5094651;28;19971;-38
2022/09/02 05:00:55;;;;;;;;;;;;;;;13.85;100.00;101751.91;5095218;28;20019;-31
2022/09/02 05:03:25;;;;;;;;;;;;;;;13.84;100.00;101748.28;5095511;28;20383;-35
2022/09/02 05:05:59;;;;;;;;;;;;;;;13.84;100.00;101748.28;5095389;28;19936;-30
2022/09/02 05:08:28;;;;;;;;;;;;;;;13.84;100.00;101748.28;5092240;28;20284;-30
2022/09/02 05:10:55;;;;;;;;;;;;;;;13.85;100.00;101751.91;5095789;28;19951;-30
2022/09/02 05:13:24;;;;;;;;;;;;;;;13.85;100.00;101749.94;5095354;28;20378;-31
2022/09/02 05:15:53;;;;;;;;;;;;;;;13.87;100.00;101755.28;5094707;28;20392;-33
2022/09/02 05:18:22;;;;;;;;;;;;;;;13.90;100.00;101751.88;5095261;28;19927;-33
2022/09/02 05:20:51;;;;;;;;;;;;;;;13.92;100.00;101750.44;5094534;28;20035;-33
2022/09/02 05:23:19;;;;;;;;;;;;;;;13.95;100.00;101755.44;5112929;28;19927;-35
2022/09/02 05:25:47;;;;;;;;;;;;;;;13.98;100.00;101748.41;5095168;28;19974;-34
2022/09/02 05:28:16;;;;;;;;;;;;;;;14.02;100.00;101749.44;5094508;28;19976;-31
2022/09/02 05:30:44;;;;;;;;;;;;;;;14.05;100.00;101743.25;5094774;28;20446;-31
2022/09/02 05:33:12;;;;;;;;;;;;;;;14.08;100.00;101743.47;5113054;28;19975;-35
2022/09/02 05:35:46;;;;;;;;;;;;;;;14.12;100.00;101744.56;5094066;28;19932;-37
2022/09/02 05:38:18;;;;;;;;;;;;;;;14.20;100.00;101739.38;5095242;28;19934;-34
2022/09/02 05:40:47;;;;;;;;;;;;;;;14.25;100.00;101736.50;5094832;28;20369;-35
2022/09/02 05:43:15;;;;;;;;;;;;;;;14.30;100.00;101742.91;5094087;28;19931;-31
2022/09/02 05:45:43;;;;;;;;;;;;;;;14.37;100.00;101737.75;5094668;28;20007;-33
2022/09/02 05:50:52;;;;;;;;;;;;;;;14.52;100.00;101744.31;5111121;28;19923;-30
2022/09/02 05:53:28;;;;;;;;;;;;;;;14.59;100.00;101731.53;5094566;28;20019;-30
2022/09/02 05:55:56;;;;;;;;;;;;;;;14.66;100.00;101737.59;5094505;28;19949;-33
2022/09/02 05:58:24;;;;;;;;;;;;;;;14.74;100.00;101744.50;5094266;28;19934;-37
2022/09/02 06:00:53;;;;;;;;;;;;;;;14.83;100.00;101742.66;5094379;28;19931;-34
2022/09/02 06:03:21;;;;;;;;;;;;;;;14.93;100.00;101747.28;5093908;28;20027;-32
2022/09/02 06:05:53;;;;;;;;;;;;;;;14.99;99.85;101740.41;5094202;28;19934;-39
2022/09/02 06:08:22;;;;;;;;;;;;;;;15.08;99.30;101732.97;5094196;28;19931;-34
2022/09/02 06:10:51;;;;;;;;;;;;;;;15.16;98.67;101737.88;5093221;28;20121;-31
2022/09/02 06:13:22;;;;;;;;;;;;;;;15.27;98.06;101735.72;5094384;28;19946;-36
2022/09/02 06:15:53;;;;;;;;;;;;;;;15.34;97.48;101725.75;5094357;28;20422;-39
2022/09/02 06:18:24;;;;;;;;;;;;;;;15.43;96.95;101729.47;5093534;28;19924;-30
2022/09/02 06:20:54;;;;;;;;;;;;;;;15.53;96.73;101714.41;5094363;28;20046;-34
2022/09/02 06:23:24;;;;;;;;;;;;;;;15.61;96.21;101721.28;5094323;28;19923;-30
2022/09/02 06:25:54;;;;;;;;;;;;;;;15.68;95.51;101719.75;5093449;28;20408;-31
2022/09/02 06:28:22;;;;;;;;;;;;;;;15.77;95.06;101722.66;5094241;28;20410;-34
2022/09/02 06:30:50;;;;;;;;;;;;;;;15.84;94.55;101711.81;5111375;28;20303;-30
2022/09/02 06:33:22;;;;;;;;;;;;;;;15.95;94.00;101720.88;5093570;28;19927;-30
2022/09/02 06:35:51;;;;;;;;;;;;;;;16.02;93.72;101719.28;5093823;28;19950;-32
2022/09/02 06:38:20;;;;;;;;;;;;;;;16.11;93.37;101717.41;5094027;28;20018;-30
2022/09/02 06:40:49;;;;;;;;;;;;;;;16.22;92.63;101715.19;5093244;28;19932;-30
2022/09/02 06:43:23;;;;;;;;;;;;;;;16.32;92.08;101719.75;5110946;28;19924;-38
2022/09/02 06:46:06;;;;;;;;;;;;;;;16.44;91.33;101720.03;5093030;28;20012;-30
2022/09/02 06:48:35;;;;;;;;;;;;;;;16.56;91.02;101717.50;5093870;28;20385;-31
2022/09/02 06:51:06;;;;;;;;;;;;;;;16.70;90.11;101717.47;5093631;28;19928;-35
2022/09/02 06:53:34;;;;;;;;;;;;;;;16.86;89.77;101715.94;5092779;28;19973;-31
2022/09/02 06:56:02;;;;;;;;;;;;;;;17.09;89.22;101716.75;5093517;28;19924;-31
2022/09/02 06:58:31;;;;;;;;;;;;;;;17.35;87.48;101714.09;5093851;28;20022;-31
2022/09/02 07:00:58;;;;;;;;;;;;;;;17.69;86.49;101716.25;5093078;28;19966;-30
2022/09/02 07:06:17;;;;;;;;;;;;;;;18.59;83.64;101718.25;5065656;28;20187;-40
2022/09/02 07:08:48;;;;;;;;;;;;;;;18.95;79.66;101719.09;5093118;28;20007;-36
2022/09/02 07:11:18;;;;;;;;;;;;;;;19.24;78.47;101719.19;5093494;28;20018;-35
2022/09/02 07:13:48;;;;;;;;;;;;;;;19.44;74.11;101707.13;5092747;28;19924;-33
2022/09/02 07:16:18;;;;;;;;;;;;;;;19.51;73.35;101704.63;5093424;28;20038;-31
2022/09/02 07:18:53;;;;;;;;;;;;;;;19.63;73.91;101705.91;5093331;28;19973;-32
2022/09/02 07:21:22;;;;;;;;;;;;;;;19.82;73.05;101703.47;5095309;28;19928;-34
2022/09/02 07:23:50;;;;;;;;;;;;;;;20.12;72.18;101698.66;5115932;28;20273;-32
2022/09/02 07:26:18;;;;;;;;;;;;;;;20.38;70.33;101704.19;5097601;28;19924;-33
2022/09/02 07:28:48;;;;;;;;;;;;;;;20.58;67.07;101703.34;5096846;28;19927;-31
2022/09/02 07:31:16;;;;;;;;;;;;;;;20.73;67.10;101701.88;5115803;28;20443;-31
2022/09/02 07:33:44;;;;;;;;;;;;;;;20.94;66.79;101697.81;5097605;28;19927;-32
2022/09/02 07:36:20;;;;;;;;;;;;;;;21.21;65.75;101704.91;5096735;28;19938;-35
2022/09/02 07:38:48;;;;;;;;;;;;;;;21.39;63.17;101699.84;5097407;28;19932;-31
2022/09/02 07:41:16;;;;;;;;;;;;;;;21.50;63.99;101695.38;5115846;28;19923;-32
2022/09/02 07:43:43;;;;;;;;;;;;;;;21.64;62.86;101698.69;5114715;28;19960;-34
2022/09/02 07:46:19;;;;;;;;;;;;;;;21.81;61.54;101699.63;5104755;28;19932;-33
2022/09/02 07:48:49;;;;;;;;;;;;;;;21.85;59.71;101690.06;5096807;28;20000;-33
2022/09/02 07:51:18;;;;;;;;;;;;;;;21.81;59.77;101700.47;5096131;28;20364;-38
2022/09/02 07:53:48;;;;;;;;;;;;;;;21.93;61.20;101696.81;5095473;28;20022;-35
2022/09/02 07:56:16;;;;;;;;;;;;;;;22.08;59.57;101693.28;5094750;28;20417;-33
2022/09/02 07:58:45;;;;;;;;;;;;;;;22.19;58.33;101694.44;5095156;28;19939;-33
2022/09/02 08:01:14;;;;;;;;;;;;;;;22.31;58.81;101690.75;5113107;28;20143;-38
2022/09/02 08:03:48;;;;;;;;;;;;;;;22.37;58.29;101683.63;5114175;28;19946;-31
2022/09/02 08:06:16;;;;;;;;;;;;;;;22.58;58.10;101692.00;5095529;28;20330;-37
2022/09/02 08:08:48;;;;;;;;;;;;;;;22.96;58.42;101682.97;5115110;28;20393;-32
2022/09/02 08:11:15;;;;;;;;;;;;;;;23.26;55.31;101683.38;5096312;28;20355;-32
2022/09/02 08:13:43;;;;;;;;;;;;;;;23.47;55.47;101681.09;5114918;28;20373;-38
2022/09/02 08:16:11;;;;;;;;;;;;;;;23.74;52.48;101678.56;5114504;28;20000;-34
2022/09/02 08:18:39;;;;;;;;;;;;;;;24.05;52.82;101681.34;5106534;28;19978;-37
2022/09/02 08:21:08;;;;;;;;;;;;;;;24.23;50.36;101674.03;5114711;28;19963;-32
2022/09/02 08:23:36;;;;;;;;;;;;;;;24.13;49.66;101673.78;5114638;27;20377;-35
2022/09/02 08:26:05;;;;;;;;;;;;;;;24.25;50.71;101671.66;5113283;28;19962;-38
2022/09/02 08:28:33;;;;;;;;;;;;;;;24.60;51.36;101670.78;5114647;28;19923;-41
2022/09/02 08:31:04;;;;;;;;;;;;;;;25.02;47.99;101665.97;5113780;28;19988;-36
2022/09/02 08:33:31;;;;;;;;;;;;;;;25.21;47.98;101665.09;5114606;28;19971;-43
2022/09/02 08:36:01;;;;;;;;;;;;;;;25.31;44.16;101670.19;5114562;28;19928;-41
2022/09/02 08:38:30;;;;;;;;;;;;;;;25.27;43.56;101666.44;5113495;28;19934;-36
2022/09/02 08:40:58;;;;;;;;;;;;;;;25.24;45.48;101666.38;5114516;28;20257;-40
2022/09/02 08:43:30;;;;;;;;;;;;;;;25.27;45.23;101666.44;5114410;28;19928;-32
2022/09/02 08:46:00;;;;;;;;;;;;;;;25.50;47.47;101662.78;5113605;28;19927;-35
2022/09/02 08:48:32;;;;;;;;;;;;;;;25.84;45.60;101670.31;5114031;28;20266;-33
2022/09/02 08:51:03;;;;;;;;;;;;;;;25.99;42.23;101668.50;5114231;28;20378;-33
2022/09/02 08:53:35;;;;;;;;;;;;;;;26.14;43.13;101670.38;5102394;28;20463;-33
2022/09/02 08:56:05;;;;;;;;;;;;;;;26.41;43.88;101663.44;5111460;28;19934;-31
2022/09/02 08:58:37;;;;;;;;;;;;;;;26.51;42.02;101666.84;5113909;28;19927;-31
2022/09/02 09:01:08;;;;;;;;;;;;;;;26.45;41.45;101668.38;5112823;28;19969;-34
2022/09/02 09:03:39;;;;;;;;;;;;;;;26.39;43.06;101654.41;5114294;28;19927;-35
2022/09/02 09:06:09;;;;;;;;;;;;;;;26.69;42.88;101657.25;5113718;28;19946;-38
2022/09/02 09:08:43;;;;;;;;;;;;;;;26.96;41.81;101663.75;5110464;28;19928;-34
2022/09/02 09:11:15;;;;;;;;;;;;;;;27.15;41.84;101661.91;5113758;28;19932;-35
2022/09/02 09:13:59;;;;;;;;;;;;;;;27.26;40.50;101662.81;5113268;28;19924;-32
2022/09/02 09:16:33;;;;;;;;;;;;;;;27.49;40.61;101656.91;5113256;28;19998;-31
2022/09/02 09:19:06;;;;;;;;;;;;;;;27.53;38.64;101643.44;5111339;28;19936;-35
2022/09/02 09:21:35;;;;;;;;;;;;;;;27.57;39.29;101650.88;5112404;28;20312;-32
2022/09/02 09:24:08;;;;;;;;;;;;;;;27.37;37.88;101641.66;5113614;28;19927;-39
2022/09/02 09:26:38;;;;;;;;;;;;;;;27.18;39.41;101633.25;5113876;28;20284;-32
2022/09/02 09:29:07;;;;;;;;;;;;;;;27.29;40.18;101639.09;5111488;28;19934;-39
2022/09/02 09:31:37;;;;;;;;;;;;;;;27.35;40.45;101637.53;5113064;28;19923;-31
2022/09/02 09:34:05;;;;;;;;;;;;;;;27.41;38.66;101645.34;5113166;28;19924;-32
2022/09/02 09:36:48;;;;;;;;;;;;;;;27.51;40.40;101640.13;5112159;28;19939;-31
2022/09/02 09:39:21;;;;;;;;;;;;;;;27.50;40.07;101633.56;5111959;28;19928;-33
2022/09/02 09:41:49;;;;;;;;;;;;;;;27.22;39.80;101639.84;5112621;28;20289;-39
2022/09/02 09:44:37;;;;;;;;;;;;;;;26.91;39.73;101635.41;5112345;28;19942;-31
2022/09/02 09:47:07;;;;;;;;;;;;;;;26.61;40.15;101635.47;5113181;28;20314;-38
2022/09/02 09:49:34;;;;;;;;;;;;;;;26.53;41.01;101630.06;5112523;28;20300;-32
2022/09/02 09:52:02;;;;;;;;;;;;;;;26.53;40.68;101628.03;5113198;28;20377;-37
2022/09/02 09:54:31;;;;;;;;;;;;;;;26.43;40.95;101625.81;5112866;28;20048;-33
2022/09/02 09:57:14;;;;;;;;;;;;;;;26.41;41.65;101629.06;5112076;28;20410;-42
2022/09/02 09:59:44;;;;;;;;;;;;;;;26.63;42.68;101635.06;5112567;28;19924;-40
2022/09/02 10:02:18;;;;;;;;;;;;;;;26.65;40.68;101632.66;5113248;28;19927;-33
2022/09/02 10:04:46;;;;;;;;;;;;;;;26.42;41.26;101630.72;5112118;28;19923;-32
2022/09/02 10:07:14;;;;;;;;;;;;;;;26.31;42.04;101641.22;5112378;28;19924;-38
2022/09/02 10:09:43;;;;;;;;;;;;;;;26.36;41.87;101631.47;5111922;28;19924;-37
2022/09/02 10:12:11;;;;;;;;;;;;;;;26.37;41.30;101628.22;5112121;28;19927;-33
2022/09/02 10:14:41;;;;;;;;;;;;;;;26.44;42.41;101618.91;5112698;28;19942;-32
2022/09/02 10:17:27;;;;;;;;;;;;;;;26.54;41.34;101625.97;5111622;28;19935;-32
2022/09/02 10:19:59;;;;;;;;;;;;;;;26.61;41.77;101629.75;5112455;28;19924;-32
2022/09/02 10:22:55;;;;;;;;;;;;;;;26.48;41.12;101618.94;5112459;28;19958;-40
2022/09/02 10:25:32;;;;;;;;;;;;;;;26.40;40.45;101615.97;5093867;28;19928;-38
2022/09/02 10:28:06;;;;;;;;;;;;;;;26.47;41.08;101626.72;5105491;28;19924;-38
2022/09/02 10:30:38;;;;;;;;;;;;;;;26.41;40.39;101617.63;5112151;28;19928;-38
2022/09/02 10:33:13;;;;;;;;;;;;;;;26.27;41.89;101611.69;5112085;28;19924;-37
2022/09/02 10:35:42;;;;;;;;;;;;;;;26.31;41.39;101612.59;5112110;28;20274;-31
2022/09/02 10:38:16;;;;;;;;;;;;;;;26.34;41.62;101606.13;5111304;28;20381;-39
2022/09/02 10:40:48;;;;;;;;;;;;;;;26.47;41.59;101608.72;5112276;28;20412;-40
2022/09/02 10:43:24;;;;;;;;;;;;;;;26.67;41.75;101608.13;5112088;28;19928;-31
2022/09/02 10:45:55;;;;;;;;;;;;;;;26.88;40.27;101613.28;5111660;28;19924;-36
2022/09/02 10:48:28;;;;;;;;;;;;;;;27.16;40.03;101609.09;5093949;28;19947;-40
2022/09/02 10:51:00;;;;;;;;;;;;;;;27.09;38.05;101609.84;5112309;28;19928;-32
2022/09/02 10:53:37;;;;;;;;;;;;;;;27.09;39.42;101610.69;5111094;28;19930;-31
2022/09/02 10:56:08;;;;;;;;;;;;;;;27.15;39.13;101599.69;5111980;28;19930;-36
2022/09/02 10:58:39;;;;;;;;;;;;;;;27.27;38.95;101598.56;5094277;28;19930;-32
2022/09/02 11:01:09;;;;;;;;;;;;;;;27.46;39.76;101595.44;5111236;28;19935;-31
2022/09/02 11:03:40;;;;;;;;;;;;;;;27.76;38.92;101590.38;5111814;28;20369;-39
2022/09/02 11:06:11;;;;;;;;;;;;;;;28.08;37.90;101590.56;5110805;28;19935;-34
2022/09/02 11:08:41;;;;;;;;;;;;;;;28.27;37.05;101586.59;5111798;28;20376;-34
2022/09/02 11:11:13;;;;;;;;;;;;;;;28.29;35.45;101577.59;5111800;28;19928;-32
2022/09/02 11:13:51;;;;;;;;;;;;;;;28.37;35.58;101580.09;5111107;28;19923;-38
2022/09/02 11:16:20;;;;;;;;;;;;;;;28.51;35.51;101572.75;5111584;28;19943;-34
2022/09/02 11:18:56;;;;;;;;;;;;;;;28.47;34.38;101578.47;5111948;28;19927;-32
2022/09/02 11:21:28;;;;;;;;;;;;;;;28.43;35.49;101572.72;5101486;28;20525;-31
2022/09/02 11:24:02;;;;;;;;;;;;;;;28.45;36.42;101570.25;5111624;28;19927;-32
2022/09/02 11:26:34;;;;;;;;;;;;;;;28.40;34.51;101576.38;5111727;28;20300;-33
2022/09/02 11:29:04;;;;;;;;;;;;;;;28.09;34.37;101575.00;5110800;28;20332;-31
2022/09/02 11:31:34;;;;;;;;;;;;;;;28.02;35.63;101568.38;5111649;28;19931;-35
2022/09/02 11:34:12;;;;;;;;;;;;;;;28.12;35.50;101568.47;5110739;28;19928;-33
2022/09/02 11:36:40;;;;;;;;;;;;;;;28.15;34.81;101561.09;5111393;28;19924;-32
2022/09/02 11:39:10;;;;;;;;;;;;;;;28.20;35.04;101552.09;5111491;28;20004;-37
2022/09/02 11:41:49;;;;;;;;;;;;;;;28.03;34.43;101552.81;5110572;28;19928;-43
2022/09/02 11:44:29;;;;;;;;;;;;;;;27.96;35.14;101553.63;5100736;28;19923;-37
2022/09/02 11:47:06;;;;;;;;;;;;;;;27.90;33.82;101565.88;5111476;28;19978;-33
2022/09/02 11:49:47;;;;;;;;;;;;;;;27.74;34.00;101546.13;5110571;28;19932;-40
2022/09/02 11:52:23;;;;;;;;;;;;;;;27.77;35.58;101537.53;5111495;28;19930;-38
2022/09/02 11:54:55;;;;;;;;;;;;;;;27.95;35.44;101534.75;5111432;28;19969;-36
2022/09/02 11:57:31;;;;;;;;;;;;;;;28.01;35.06;101533.13;5100226;28;19924;-35
2022/09/02 12:00:06;;;;;;;;;;;;;;;28.06;35.35;101523.31;5111276;28;19924;-38
2022/09/02 12:02:42;;;;;;;;;;;;;;;27.97;34.35;101534.38;5099609;28;20384;-31
2022/09/02 12:05:28;;;;;;;;;;;;;;;27.74;34.26;101538.34;5111079;28;19931;-35
2022/09/02 12:07:58;;;;;;;;;;;;;;;27.46;35.09;101520.91;5120048;27;19931;-37
2022/09/02 12:10:58;;;;;;;;;;;;;;;27.48;35.19;101520.50;5114366;28;19930;-43
2022/09/02 12:13:35;;;;;;;;;;;;;;;27.52;35.56;101522.19;5024815;28;19972;-33
2022/09/02 12:16:24;;;;;;;;;;;;;;;27.52;35.35;101524.22;5101739;28;19923;-34
2022/09/02 12:19:09;;;;;;;;;;;;;;;27.56;35.55;101522.22;5113588;28;19923;-39
2022/09/02 12:21:59;;;;;;;;;;;;;;;27.62;35.22;101512.84;5114691;28;20384;-32
2022/09/02 12:24:27;;;;;;;;;;;;;;;27.53;34.30;101515.22;5113495;28;19923;-38
2022/09/02 12:27:08;;;;;;;;;;;;;;;27.55;34.97;101506.22;5088901;28;20308;-32
2022/09/02 12:29:38;;;;;;;;;;;;;;;27.55;35.13;101507.06;5114359;28;20384;-33
2022/09/02 12:32:08;;;;;;;;;;;;;;;27.58;36.06;101502.59;5106716;28;19935;-29
2022/09/02 12:34:55;;;;;;;;;;;;;;;27.73;36.13;101504.31;5113659;28;20267;-35
2022/09/02 12:37:41;;;;;;;;;;;;;;;27.74;35.21;101505.97;5106874;28;19927;-34
2022/09/02 12:40:15;;;;;;;;;;;;;;;27.76;35.56;101495.75;5114455;28;19924;-29
2022/09/02 12:42:44;;;;;;;;;;;;;;;27.92;35.89;101498.28;5114324;28;19946;-29
2022/09/02 12:45:23;;;;;;;;;;;;;;;28.01;35.72;101489.28;5095097;28;20300;-29
2022/09/02 12:47:58;;;;;;;;;;;;;;;28.17;35.54;101489.75;5114296;28;20018;-34
2022/09/02 12:50:28;;;;;;;;;;;;;;;28.16;34.68;101487.31;5114481;28;19923;-31
2022/09/02 12:53:14;;;;;;;;;;;;;;;27.94;34.49;101489.25;5113258;28;19923;-31
2022/09/02 12:55:53;;;;;;;;;;;;;;;27.91;35.08;101487.19;5112866;28;19959;-29
2022/09/02 12:58:22;;;;;;;;;;;;;;;27.95;35.22;101488.03;5113109;28;19951;-33